createdAt,value
2019-05-26T00:02:11.099Z,99132.64
2019-05-26T00:04:37.122Z,99126.97
2019-05-26T00:07:03.660Z,99121.59
2019-05-26T00:09:29.701Z,99115.45
2019-05-26T00:11:56.111Z,99118.70
2019-05-26T00:14:22.453Z,99101.27
2019-05-26T00:16:48.625Z,99103.14
2019-05-26T00:19:14.864Z,99107.19
2019-05-26T00:21:41.501Z,99100.71
2019-05-26T00:24:07.624Z,99099.61
2019-05-26T00:26:33.787Z,99100.52
2019-05-26T00:29:00.256Z,99093.56
2019-05-26T00:31:26.274Z,99098.97
2019-05-26T00:33:52.427Z,99096.97
2019-05-26T00:36:18.913Z,99094.80
2019-05-26T00:38:44.966Z,99104.41
2019-05-26T00:41:11.128Z,99091.10
2019-05-26T00:43:37.298Z,99088.67
2019-05-26T00:46:03.609Z,99097.50
2019-05-26T00:48:29.728Z,99099.83
2019-05-26T00:50:56.347Z,99097.70
2019-05-26T00:53:22.471Z,99050.45
2019-05-26T00:55:48.527Z,99093.02
2019-05-26T00:58:14.639Z,99091.52
2019-05-26T01:00:42.111Z,99095.58
2019-05-26T01:03:09.588Z,99085.75
2019-05-26T01:05:36.234Z,99089.67
2019-05-26T01:08:06.630Z,99089.25
2019-05-26T01:10:32.338Z,99085.74
2019-05-26T01:12:58.346Z,99097.20
2019-05-26T01:15:24.531Z,99093.21
2019-05-26T01:17:50.809Z,99087.48
2019-05-26T01:20:17.442Z,99094.73
2019-05-26T01:22:43.567Z,99089.31
2019-05-26T01:25:09.867Z,99089.30
2019-05-26T01:27:36.423Z,99084.30
2019-05-26T01:30:04.796Z,99074.26
2019-05-26T01:32:31.043Z,99085.04
2019-05-26T01:34:57.532Z,99077.47
2019-05-26T01:37:23.826Z,99078.56
2019-05-26T01:39:49.887Z,99086.17
2019-05-26T01:42:15.929Z,99089.31
2019-05-26T01:44:41.902Z,99082.86
2019-05-26T01:47:08.322Z,99077.17
2019-05-26T01:49:34.353Z,99081.08
2019-05-26T01:52:00.266Z,99092.84
2019-05-26T01:54:26.764Z,99089.67
2019-05-26T01:56:52.906Z,99084.77
2019-05-26T01:59:20.538Z,99091.74
2019-05-26T02:01:48.745Z,99079.41
2019-05-26T02:04:16.713Z,99091.92
2019-05-26T02:06:42.828Z,99088.56
2019-05-26T02:09:09.374Z,99079.31
2019-05-26T02:11:35.412Z,99087.95
2019-05-26T02:14:01.443Z,99034.58
2019-05-26T02:16:27.765Z,99080.88
2019-05-26T02:18:53.913Z,99078.87
2019-05-26T02:21:19.939Z,99073.94
2019-05-26T02:23:45.988Z,99079.48
2019-05-26T02:26:12.151Z,99082.27
2019-05-26T02:28:38.148Z,99078.41
2019-05-26T02:31:04.258Z,99081.45
2019-05-26T02:33:30.279Z,99069.26
2019-05-26T02:35:56.775Z,99077.28
2019-05-26T02:38:26.199Z,99072.61
2019-05-26T02:40:50.803Z,99076.60
2019-05-26T02:43:17.300Z,99070.09
2019-05-26T02:45:43.576Z,99065.14
2019-05-26T02:48:09.715Z,98929.48
2019-05-26T02:50:36.024Z,99062.92
2019-05-26T02:53:02.171Z,99063.36
2019-05-26T02:55:28.362Z,99065.05
2019-05-26T02:57:54.935Z,99065.19
2019-05-26T03:00:33.708Z,99062.41
2019-05-26T03:02:59.717Z,99060.09
2019-05-26T03:05:26.210Z,99051.47
2019-05-26T03:07:52.834Z,98835.08
2019-05-26T03:10:18.974Z,99056.89
2019-05-26T03:12:45.824Z,99055.97
2019-05-26T03:15:12.899Z,99051.94
2019-05-26T03:17:40.037Z,99049.94
2019-05-26T03:20:06.728Z,99041.44
2019-05-26T03:22:32.945Z,99047.16
2019-05-26T03:24:59.781Z,99042.83
2019-05-26T03:27:26.121Z,99049.50
2019-05-26T03:29:52.033Z,99050.73
2019-05-26T03:32:18.234Z,99054.12
2019-05-26T03:34:44.878Z,99054.77
2019-05-26T03:37:10.943Z,99050.16
2019-05-26T03:39:45.267Z,99038.58
2019-05-26T03:42:05.501Z,99050.16
2019-05-26T03:44:31.717Z,99037.36
2019-05-26T03:46:57.756Z,99045.09
2019-05-26T03:49:24.223Z,99049.55
2019-05-26T03:51:50.157Z,99045.52
2019-05-26T03:54:16.134Z,99047.69
2019-05-26T03:56:42.530Z,99054.16
2019-05-26T03:59:08.675Z,99043.52
2019-05-26T04:01:34.836Z,99045.39
2019-05-26T04:04:01.055Z,99050.81
2019-05-26T04:06:27.257Z,99050.03
2019-05-26T04:08:53.293Z,99040.92
2019-05-26T04:11:19.504Z,99042.17
2019-05-26T04:13:45.622Z,99045.56
2019-05-26T04:16:11.916Z,99044.31
2019-05-26T04:18:38.484Z,99040.30
2019-05-26T04:21:04.475Z,99040.30
2019-05-26T04:23:30.878Z,99048.47
2019-05-26T04:25:57.563Z,98815.44
2019-05-26T04:28:23.596Z,99047.95
2019-05-26T04:30:49.726Z,99045.47
2019-05-26T04:33:16.146Z,99043.13
2019-05-26T04:35:42.253Z,99046.64
2019-05-26T04:38:08.598Z,99054.19
2019-05-26T04:40:35.163Z,99051.66
2019-05-26T04:43:01.546Z,99054.42
2019-05-26T04:45:27.510Z,99056.68
2019-05-26T04:47:53.598Z,99058.80
2019-05-26T04:50:19.993Z,99055.36
2019-05-26T04:53:04.343Z,99053.77
2019-05-26T04:55:14.608Z,99056.02
2019-05-26T04:57:40.692Z,99057.52
2019-05-26T05:00:07.545Z,99057.61
2019-05-26T05:02:33.583Z,99053.54
2019-05-26T05:04:59.582Z,99053.65
2019-05-26T05:07:28.418Z,99027.54
2019-05-26T05:09:53.837Z,99048.27
2019-05-26T05:12:21.266Z,99054.98
2019-05-26T05:14:47.476Z,99045.34
2019-05-26T05:17:13.654Z,99057.48
2019-05-26T05:19:39.698Z,99056.16
2019-05-26T05:22:06.040Z,98823.73
2019-05-26T05:24:32.325Z,99046.90
2019-05-26T05:26:58.495Z,99048.03
2019-05-26T05:29:24.510Z,99049.64
2019-05-26T05:31:50.575Z,99049.38
2019-05-26T05:34:16.811Z,99040.14
2019-05-26T05:36:43.336Z,99041.39
2019-05-26T05:39:09.497Z,99045.77
2019-05-26T05:41:35.661Z,99040.20
2019-05-26T05:44:02.390Z,99029.80
2019-05-26T05:46:28.683Z,99031.06
2019-05-26T05:48:54.839Z,99036.48
2019-05-26T05:51:21.368Z,98876.47
2019-05-26T05:53:47.405Z,99033.76
2019-05-26T05:56:13.706Z,99039.20
2019-05-26T05:58:40.011Z,99025.35
2019-05-26T06:01:06.035Z,99026.94
2019-05-26T06:03:32.844Z,99030.48
2019-05-26T06:05:59.455Z,99030.85
2019-05-26T06:08:25.563Z,99025.35
2019-05-26T06:10:51.731Z,99026.71
2019-05-26T06:13:18.225Z,99021.94
2019-05-26T06:15:44.377Z,99024.30
2019-05-26T06:18:10.633Z,99026.69
2019-05-26T06:20:37.038Z,99027.88
2019-05-26T06:23:03.309Z,99014.95
2019-05-26T06:25:29.937Z,99014.50
2019-05-26T06:27:56.445Z,99014.30
2019-05-26T06:30:23.221Z,99011.55
2019-05-26T06:32:49.650Z,99011.58
2019-05-26T06:35:15.897Z,99010.10
2019-05-26T06:37:41.817Z,99013.70
2019-05-26T06:40:08.320Z,99015.44
2019-05-26T06:42:34.971Z,99010.27
2019-05-26T06:45:01.779Z,98847.79
2019-05-26T06:47:28.142Z,99014.48
2019-05-26T06:49:54.548Z,99017.31
2019-05-26T06:52:21.056Z,98833.33
2019-05-26T06:54:47.452Z,99022.80
2019-05-26T06:57:15.668Z,99015.66
2019-05-26T06:59:41.897Z,99016.27
2019-05-26T07:02:07.929Z,99016.02
2019-05-26T07:04:34.279Z,99017.73
2019-05-26T07:07:00.353Z,99021.72
2019-05-26T07:09:26.854Z,99014.90
2019-05-26T07:11:59.665Z,99014.41
2019-05-26T07:14:21.292Z,99011.67
2019-05-26T07:16:47.344Z,99006.53
2019-05-26T07:19:13.999Z,99010.84
2019-05-26T07:21:40.263Z,99011.11
2019-05-26T07:24:06.381Z,99003.03
2019-05-26T07:26:32.900Z,99018.80
2019-05-26T07:28:59.021Z,99008.94
2019-05-26T07:31:24.963Z,98994.27
2019-05-26T07:33:51.925Z,98997.42
2019-05-26T07:36:18.083Z,99001.11
2019-05-26T07:38:44.239Z,98995.77
2019-05-26T07:41:10.295Z,98994.78
2019-05-26T07:43:36.329Z,99000.94
2019-05-26T07:46:03.747Z,98995.03
2019-05-26T07:51:43.028Z,98988.87
2019-05-26T07:54:24.505Z,98993.16
2019-05-26T07:56:37.884Z,98989.07
2019-05-26T07:59:08.369Z,98988.02
2019-05-26T08:01:36.473Z,98984.64
2019-05-26T08:04:03.522Z,98973.77
2019-05-26T08:06:30.906Z,98977.59
2019-05-26T08:08:57.720Z,98964.64
2019-05-26T08:11:23.864Z,98804.95
2019-05-26T08:13:50.326Z,98972.83
2019-05-26T08:16:16.848Z,98969.95
2019-05-26T08:18:43.256Z,98969.25
2019-05-26T08:21:09.766Z,98832.75
2019-05-26T08:23:36.011Z,98968.36
2019-05-26T08:26:03.775Z,98964.91
2019-05-26T08:28:30.754Z,98983.64
2019-05-26T08:30:57.001Z,98803.78
2019-05-26T08:33:24.919Z,98971.83
2019-05-26T08:35:51.619Z,98969.78
2019-05-26T08:38:20.201Z,98969.95
2019-05-26T08:40:46.778Z,98967.30
2019-05-26T08:43:13.196Z,98979.66
2019-05-26T08:45:39.589Z,98962.38
2019-05-26T08:48:06.079Z,98950.31
2019-05-26T08:50:34.438Z,98950.78
2019-05-26T08:53:01.391Z,98946.08
2019-05-26T08:55:27.637Z,98960.48
2019-05-26T08:57:54.272Z,98949.31
2019-05-26T09:00:22.752Z,98944.05
2019-05-26T09:02:49.307Z,98944.87
2019-05-26T09:05:15.806Z,98943.05
2019-05-26T09:07:42.864Z,98937.72
2019-05-26T09:10:09.705Z,98937.05
2019-05-26T09:12:37.264Z,98929.36
2019-05-26T09:15:07.964Z,98928.98
2019-05-26T09:17:34.289Z,98937.63
2019-05-26T09:20:00.709Z,98926.70
2019-05-26T09:22:27.644Z,98922.27
2019-05-26T09:24:58.647Z,98936.31
2019-05-26T09:27:25.179Z,98929.91
2019-05-26T09:29:51.467Z,98934.70
2019-05-26T09:32:35.894Z,98929.23
2019-05-26T09:35:07.077Z,98926.39
2019-05-26T09:37:34.370Z,98927.77
2019-05-26T09:40:02.633Z,98922.89
2019-05-26T09:42:29.285Z,98908.33
2019-05-26T09:44:55.457Z,98907.63
2019-05-26T09:47:30.404Z,98909.98
2019-05-26T09:49:57.203Z,98905.14
2019-05-26T09:52:25.044Z,98898.51
2019-05-26T09:54:51.234Z,98843.91
2019-05-26T09:57:19.375Z,98897.75
2019-05-26T09:59:46.165Z,98866.39
2019-05-26T10:02:12.901Z,98889.98
2019-05-26T10:04:41.452Z,98892.02
2019-05-26T10:07:12.092Z,98900.14
2019-05-26T10:09:37.096Z,98889.84
2019-05-26T10:12:03.962Z,98893.13
2019-05-26T10:14:31.330Z,98886.34
2019-05-26T10:17:01.163Z,98886.63
2019-05-26T10:19:27.707Z,98882.28
2019-05-26T10:21:54.671Z,98875.92
2019-05-26T10:24:20.957Z,98884.79
2019-05-26T10:26:47.453Z,98875.30
2019-05-26T10:29:13.813Z,98879.80
2019-05-26T10:31:40.506Z,98873.52
2019-05-26T10:34:06.691Z,98878.21
2019-05-26T10:36:32.820Z,98869.14
2019-05-26T10:38:59.178Z,98871.16
2019-05-26T10:41:25.504Z,98881.16
2019-05-26T10:43:53.246Z,98878.97
2019-05-26T10:46:21.827Z,98874.95
2019-05-26T10:48:48.107Z,98726.77
2019-05-26T10:51:14.400Z,98866.81
2019-05-26T10:53:41.571Z,98717.03
2019-05-26T10:56:10.458Z,98863.73
2019-05-26T10:58:37.030Z,98867.17
2019-05-26T11:01:03.916Z,98865.20
2019-05-26T11:03:30.379Z,98847.77
2019-05-26T11:06:00.687Z,98850.67
2019-05-26T11:08:28.943Z,98853.02
2019-05-26T11:10:55.680Z,98843.45
2019-05-26T11:13:21.994Z,98851.36
2019-05-26T11:15:48.642Z,98844.66
2019-05-26T11:18:18.643Z,98847.06
2019-05-26T11:20:44.770Z,98843.75
2019-05-26T11:23:11.192Z,98835.73
2019-05-26T11:25:37.588Z,98826.16
2019-05-26T11:28:04.097Z,98837.23
2019-05-26T11:30:30.466Z,98821.89
2019-05-26T11:32:59.557Z,98825.92
2019-05-26T11:35:25.893Z,98532.71
2019-05-26T11:37:54.584Z,98819.42
2019-05-26T11:40:21.590Z,98818.94
2019-05-26T11:42:48.124Z,98813.55
2019-05-26T11:45:17.622Z,98800.75
2019-05-26T11:47:43.837Z,98802.55
2019-05-26T11:50:10.687Z,98797.29
2019-05-26T11:52:38.858Z,98800.94
2019-05-26T11:55:10.574Z,98793.51
2019-05-26T11:57:37.557Z,98791.21
2019-05-26T12:00:08.737Z,98792.25
2019-05-26T12:02:35.835Z,98649.83
2019-05-26T12:05:04.869Z,98785.98
2019-05-26T12:07:31.865Z,98791.05
2019-05-26T12:09:58.610Z,98789.42
2019-05-26T12:12:25.567Z,98777.62
2019-05-26T12:14:52.092Z,98778.71
2019-05-26T12:17:18.454Z,98772.45
2019-05-26T12:19:48.167Z,98773.08
2019-05-26T12:22:14.526Z,98634.03
2019-05-26T12:24:42.183Z,98779.97
2019-05-26T12:27:12.055Z,98770.19
2019-05-26T12:29:43.273Z,98776.30
2019-05-26T12:32:09.569Z,98772.34
2019-05-26T12:34:36.405Z,98773.43
2019-05-26T12:37:06.965Z,98771.86
2019-05-26T12:39:33.499Z,98769.07
2019-05-26T12:42:04.878Z,98768.41
2019-05-26T12:44:31.821Z,98769.70
2019-05-26T12:46:58.019Z,98764.41
2019-05-26T12:49:27.770Z,98760.30
2019-05-26T12:51:52.949Z,98761.94
2019-05-26T12:54:21.001Z,98763.40
2019-05-26T12:56:47.379Z,98771.20
2019-05-26T12:59:13.468Z,98760.11
2019-05-26T13:01:42.433Z,98755.09
2019-05-26T13:04:09.199Z,98758.05
2019-05-26T13:06:39.298Z,98759.80
2019-05-26T13:09:08.461Z,98745.30
2019-05-26T13:11:35.353Z,98757.34
2019-05-26T13:14:01.554Z,98762.97
2019-05-26T13:16:28.575Z,98756.14
2019-05-26T13:18:56.792Z,98741.13
2019-05-26T13:21:26.701Z,98752.20
2019-05-26T13:23:58.386Z,98746.05
2019-05-26T13:26:24.190Z,98599.07
2019-05-26T13:28:50.492Z,98747.84
2019-05-26T13:31:16.629Z,98745.28
2019-05-26T13:33:42.958Z,98735.80
2019-05-26T13:36:11.101Z,98731.77
2019-05-26T13:38:40.307Z,98738.74
2019-05-26T13:41:07.371Z,98737.25
2019-05-26T13:43:34.014Z,98698.02
2019-05-26T13:46:00.073Z,98732.53
2019-05-26T13:48:26.408Z,98745.28
2019-05-26T13:50:52.741Z,98728.38
2019-05-26T13:53:18.926Z,98727.72
2019-05-26T13:55:47.876Z,98739.84
2019-05-26T13:58:14.126Z,98571.79
2019-05-26T14:00:40.683Z,98717.86
2019-05-26T14:03:07.364Z,98564.80
2019-05-26T14:05:34.527Z,98719.32
2019-05-26T14:08:02.191Z,98719.91
2019-05-26T14:10:36.023Z,98731.19
2019-05-26T14:13:04.626Z,98729.80
2019-05-26T14:15:38.276Z,98569.20
2019-05-26T14:18:01.116Z,98719.73
2019-05-26T14:20:38.997Z,98717.80
2019-05-26T14:23:05.604Z,98710.70
2019-05-26T14:25:32.588Z,98709.48
2019-05-26T14:27:58.907Z,98713.86
2019-05-26T14:30:25.110Z,98712.23
2019-05-26T14:32:51.561Z,98712.96
2019-05-26T14:35:17.707Z,98708.85
2019-05-26T14:37:44.352Z,98708.25
2019-05-26T14:40:13.485Z,98709.97
2019-05-26T14:42:39.725Z,98700.27
2019-05-26T14:45:07.128Z,98706.06
2019-05-26T14:47:33.638Z,98701.97
2019-05-26T14:49:59.804Z,98691.66
2019-05-26T14:52:26.203Z,98693.67
2019-05-26T14:54:52.679Z,98694.16
2019-05-26T14:57:31.584Z,98699.17
2019-05-26T14:59:57.498Z,98714.87
2019-05-26T15:02:26.375Z,98685.41
2019-05-26T15:04:52.754Z,98687.73
2019-05-26T15:07:19.540Z,98690.69
2019-05-26T15:09:46.270Z,98686.78
2019-05-26T15:12:12.535Z,98676.34
2019-05-26T15:14:39.617Z,98688.20
2019-05-26T15:17:05.964Z,98684.20
2019-05-26T15:19:32.976Z,98684.77
2019-05-26T15:21:59.830Z,98682.95
2019-05-26T15:24:26.290Z,98693.58
2019-05-26T15:26:54.803Z,98676.66
2019-05-26T15:29:22.692Z,98685.78
2019-05-26T15:31:49.436Z,98681.52
2019-05-26T15:34:16.839Z,98680.45
2019-05-26T15:36:43.158Z,98674.21
2019-05-26T15:39:09.805Z,98674.80
2019-05-26T15:41:35.953Z,98665.73
2019-05-26T15:44:02.369Z,98679.48
2019-05-26T15:46:28.841Z,98660.56
2019-05-26T15:48:55.024Z,98661.34
2019-05-26T15:51:21.037Z,98661.59
2019-05-26T15:53:47.463Z,98647.94
2019-05-26T15:56:13.539Z,98645.29
2019-05-26T15:58:39.708Z,98642.84
2019-05-26T16:01:06.072Z,98645.18
2019-05-26T16:03:32.216Z,98648.48
2019-05-26T16:05:58.365Z,98642.78
2019-05-26T16:08:24.779Z,98647.36
2019-05-26T16:10:50.793Z,98630.88
2019-05-26T16:13:16.917Z,98639.38
2019-05-26T16:15:43.571Z,98636.55
2019-05-26T16:18:10.142Z,98635.84
2019-05-26T16:20:37.749Z,98462.08
2019-05-26T16:23:04.383Z,98637.83
2019-05-26T16:25:30.634Z,98638.00
2019-05-26T16:27:57.621Z,98626.45
2019-05-26T16:30:24.270Z,98632.13
2019-05-26T16:32:51.427Z,98636.15
2019-05-26T16:35:18.805Z,98637.08
2019-05-26T16:37:44.959Z,98637.91
2019-05-26T16:40:11.416Z,98631.88
2019-05-26T16:42:37.806Z,98634.66
2019-05-26T16:45:05.328Z,98627.02
2019-05-26T16:47:31.604Z,98626.36
2019-05-26T16:49:57.743Z,98621.84
2019-05-26T16:52:24.188Z,98631.75
2019-05-26T16:54:50.483Z,98621.46
2019-05-26T16:57:16.824Z,98630.44
2019-05-26T16:59:43.222Z,98626.01
2019-05-26T17:02:09.357Z,98623.75
2019-05-26T17:04:35.470Z,98618.90
2019-05-26T17:07:02.654Z,98615.22
2019-05-26T17:09:29.255Z,98619.17
2019-05-26T17:11:55.427Z,98621.86
2019-05-26T17:14:21.775Z,98619.75
2019-05-26T17:16:48.225Z,98619.09
2019-05-26T17:19:15.279Z,98613.57
2019-05-26T17:21:42.102Z,98614.99
2019-05-26T17:24:08.594Z,98613.56
2019-05-26T17:26:35.626Z,98616.07
2019-05-26T17:29:02.699Z,98611.09
2019-05-26T17:31:28.936Z,98613.50
2019-05-26T17:33:54.986Z,98619.41
2019-05-26T17:36:21.557Z,98625.15
2019-05-26T17:38:47.608Z,98618.14
2019-05-26T17:41:13.627Z,98614.72
2019-05-26T17:43:39.690Z,98616.34
2019-05-26T17:46:06.161Z,98605.53
2019-05-26T17:48:32.510Z,98608.70
2019-05-26T17:50:59.073Z,98606.58
2019-05-26T17:53:25.283Z,98610.98
2019-05-26T17:55:51.324Z,98603.88
2019-05-26T17:58:17.322Z,98607.22
2019-05-26T18:00:43.642Z,98603.20
2019-05-26T18:03:09.718Z,98608.38
2019-05-26T18:05:36.145Z,98600.58
2019-05-26T18:08:02.750Z,98599.34
2019-05-26T18:10:29.656Z,98602.95
2019-05-26T18:12:55.961Z,98607.47
2019-05-26T18:15:22.133Z,98600.95
2019-05-26T18:17:48.326Z,98595.92
2019-05-26T18:20:15.339Z,98589.23
2019-05-26T18:22:41.623Z,98584.21
2019-05-26T18:25:08.212Z,98586.73
2019-05-26T18:27:34.885Z,98593.83
2019-05-26T18:30:03.241Z,98579.89
2019-05-26T18:32:29.562Z,98580.85
2019-05-26T18:34:56.343Z,98579.27
2019-05-26T18:37:23.335Z,98584.67
2019-05-26T18:39:50.117Z,98582.59
2019-05-26T18:42:17.311Z,98573.82
2019-05-26T18:44:43.998Z,98576.66
2019-05-26T18:47:10.189Z,98580.23
2019-05-26T18:49:36.725Z,98584.38
2019-05-26T18:52:04.849Z,98577.41
2019-05-26T18:54:31.173Z,98572.20
2019-05-26T18:56:57.814Z,98574.93
2019-05-26T18:59:24.028Z,98577.00
2019-05-26T19:01:50.029Z,98572.08
2019-05-26T19:04:16.296Z,98564.03
2019-05-26T19:06:43.654Z,98426.66
2019-05-26T19:09:09.612Z,98572.81
2019-05-26T19:11:36.349Z,98570.14
2019-05-26T19:14:03.372Z,98565.04
2019-05-26T19:16:29.797Z,98566.77
2019-05-26T19:18:56.090Z,98571.55
2019-05-26T19:21:22.286Z,98570.85
2019-05-26T19:23:48.708Z,98569.70
2019-05-26T19:26:15.130Z,98566.53
2019-05-26T19:28:41.213Z,98569.21
2019-05-26T19:31:07.252Z,98563.44
2019-05-26T19:33:33.408Z,98572.27
2019-05-26T19:35:59.609Z,98574.08
2019-05-26T19:38:25.768Z,98573.83
2019-05-26T19:40:51.801Z,98566.81
2019-05-26T19:43:18.313Z,98574.77
2019-05-26T19:45:44.757Z,98573.41
2019-05-26T19:48:10.743Z,98573.45
2019-05-26T19:50:36.778Z,98574.34
2019-05-26T19:53:04.316Z,98566.48
2019-05-26T19:55:30.485Z,98565.66
2019-05-26T19:57:56.500Z,98557.84
2019-05-26T20:00:23.176Z,98560.15
2019-05-26T20:02:49.318Z,98563.77
2019-05-26T20:05:16.397Z,98555.44
2019-05-26T20:07:43.111Z,98560.89
2019-05-26T20:10:10.663Z,98550.41
2019-05-26T20:12:36.773Z,98551.08
2019-05-26T20:15:04.966Z,98551.09
2019-05-26T20:17:31.388Z,98552.19
2019-05-26T20:19:57.446Z,98547.25
2019-05-26T20:22:24.647Z,98538.36
2019-05-26T20:24:51.047Z,98552.69
2019-05-26T20:27:17.067Z,98537.52
2019-05-26T20:29:43.222Z,98544.25
2019-05-26T20:32:09.486Z,98541.75
2019-05-26T20:34:35.567Z,98545.00
2019-05-26T20:37:02.507Z,98533.33
2019-05-26T20:39:28.842Z,98532.98
2019-05-26T20:41:55.021Z,98534.62
2019-05-26T20:44:21.058Z,98547.08
2019-05-26T20:46:47.110Z,98544.58
2019-05-26T20:49:13.259Z,98541.45
2019-05-26T20:51:39.941Z,98531.73
2019-05-26T20:54:05.995Z,98533.23
2019-05-26T20:56:32.777Z,98537.14
2019-05-26T20:59:00.020Z,98532.92
2019-05-26T21:01:26.604Z,98529.13
2019-05-26T21:03:52.769Z,98535.84
2019-05-26T21:06:19.814Z,98533.98
2019-05-26T21:08:46.745Z,98548.50
2019-05-26T21:11:13.997Z,98528.48
2019-05-26T21:13:41.220Z,98537.12
2019-05-26T21:16:07.380Z,98536.80
2019-05-26T21:18:33.610Z,98535.61
2019-05-26T21:21:00.866Z,98527.16
2019-05-26T21:23:27.317Z,98527.25
2019-05-26T21:25:53.415Z,98528.44
2019-05-26T21:28:19.974Z,98524.30
2019-05-26T21:30:46.141Z,98522.35
2019-05-26T21:33:12.272Z,98512.70
2019-05-26T21:35:38.595Z,98509.02
2019-05-26T21:38:04.689Z,98511.73
2019-05-26T21:40:30.730Z,98512.69
2019-05-26T21:42:57.588Z,98513.13
2019-05-26T21:45:23.834Z,98511.94
2019-05-26T21:47:49.982Z,98513.66
2019-05-26T21:50:17.165Z,98502.39
2019-05-26T21:52:45.977Z,98509.19
2019-05-26T21:55:13.324Z,98507.56
2019-05-26T21:57:39.570Z,98505.59
2019-05-26T22:00:12.145Z,98499.75
2019-05-26T22:02:43.070Z,98497.15
2019-05-26T22:05:10.048Z,98500.27
2019-05-26T22:07:38.564Z,98502.62
2019-05-26T22:10:07.788Z,98500.89
2019-05-26T22:12:34.922Z,98497.11
2019-05-26T22:15:01.071Z,98495.38
2019-05-26T22:17:27.388Z,98491.34
2019-05-26T22:19:53.628Z,98481.71
2019-05-26T22:22:20.116Z,98479.20
2019-05-26T22:24:47.064Z,98481.69
2019-05-26T22:27:13.972Z,98480.81
2019-05-26T22:29:40.113Z,98471.19
2019-05-26T22:32:06.277Z,98472.47
2019-05-26T22:34:32.308Z,98467.92
2019-05-26T22:36:58.757Z,98478.83
2019-05-26T22:39:24.931Z,98470.94
2019-05-26T22:41:51.056Z,98465.06
2019-05-26T22:44:17.592Z,98467.77
2019-05-26T22:46:44.023Z,98465.47
2019-05-26T22:49:10.158Z,98465.03
2019-05-26T22:51:36.889Z,98461.98
2019-05-26T22:54:03.512Z,98461.13
2019-05-26T22:56:29.670Z,98462.42
2019-05-26T22:58:55.699Z,98457.31
2019-05-26T23:01:21.733Z,98463.16
2019-05-26T23:03:48.278Z,98463.29
2019-05-26T23:06:14.414Z,98474.63
2019-05-26T23:08:40.543Z,98462.33
2019-05-26T23:11:06.876Z,98461.92
2019-05-26T23:13:32.893Z,98460.75
2019-05-26T23:15:58.942Z,98457.41
2019-05-26T23:18:25.391Z,98459.04
2019-05-26T23:20:51.550Z,98455.92
2019-05-26T23:23:17.572Z,98456.05
2019-05-26T23:25:43.556Z,98451.30
2019-05-26T23:28:09.692Z,98465.67
2019-05-26T23:30:35.906Z,98449.80
2019-05-26T23:33:02.575Z,98448.75
2019-05-26T23:35:28.735Z,98452.30
2019-05-26T23:37:54.673Z,98454.70
2019-05-26T23:40:20.892Z,98449.17
2019-05-26T23:42:47.064Z,98451.45
2019-05-26T23:45:13.318Z,98448.33
2019-05-26T23:47:39.329Z,98446.39
2019-05-26T23:50:06.192Z,98444.78
2019-05-26T23:52:32.603Z,98395.39
2019-05-26T23:54:58.865Z,98434.19
2019-05-26T23:57:25.271Z,98436.36
2019-05-26T23:59:51.352Z,98430.51
